sensor_id;sensor_type;location;lat;lon;timestamp;temperature;humidity
41628;DHT22;27321;50.816;6.054;2023-05-19T00:02:46;12.30;63.00
41628;DHT22;27321;50.816;6.054;2023-05-19T00:05:47;12.30;63.00
41628;DHT22;27321;50.816;6.054;2023-05-19T00:08:48;12.30;63.10
41628;DHT22;27321;50.816;6.054;2023-05-19T00:11:50;12.30;63.10
41628;DHT22;27321;50.816;6.054;2023-05-19T00:14:51;12.30;62.90
41628;DHT22;27321;50.816;6.054;2023-05-19T00:17:52;12.20;62.70
41628;DHT22;27321;50.816;6.054;2023-05-19T00:20:54;12.20;62.90
41628;DHT22;27321;50.816;6.054;2023-05-19T00:23:55;12.20;62.90
41628;DHT22;27321;50.816;6.054;2023-05-19T00:26:57;12.20;62.90
41628;DHT22;27321;50.816;6.054;2023-05-19T00:29:58;12.10;63.00
41628;DHT22;27321;50.816;6.054;2023-05-19T00:32:59;12.10;63.10
41628;DHT22;27321;50.816;6.054;2023-05-19T00:36:00;12.10;63.00
41628;DHT22;27321;50.816;6.054;2023-05-19T00:39:02;12.10;63.20
41628;DHT22;27321;50.816;6.054;2023-05-19T00:42:03;12.10;63.20
41628;DHT22;27321;50.816;6.054;2023-05-19T00:45:05;12.00;63.20
41628;DHT22;27321;50.816;6.054;2023-05-19T00:48:06;12.00;63.20
41628;DHT22;27321;50.816;6.054;2023-05-19T00:51:07;11.90;63.40
41628;DHT22;27321;50.816;6.054;2023-05-19T00:54:08;11.90;63.40
41628;DHT22;27321;50.816;6.054;2023-05-19T00:57:09;11.80;63.50
41628;DHT22;27321;50.816;6.054;2023-05-19T01:00:11;11.80;63.70
41628;DHT22;27321;50.816;6.054;2023-05-19T01:03:13;11.80;63.70
41628;DHT22;27321;50.816;6.054;2023-05-19T01:06:14;11.80;63.90
41628;DHT22;27321;50.816;6.054;2023-05-19T01:09:15;11.70;64.00
41628;DHT22;27321;50.816;6.054;2023-05-19T01:12:16;11.70;64.00
41628;DHT22;27321;50.816;6.054;2023-05-19T01:15:18;11.70;63.70
41628;DHT22;27321;50.816;6.054;2023-05-19T01:18:22;11.60;63.90
41628;DHT22;27321;50.816;6.054;2023-05-19T01:25:18;11.60;63.90
41628;DHT22;27321;50.816;6.054;2023-05-19T01:31:39;11.60;63.90
41628;DHT22;27321;50.816;6.054;2023-05-19T01:34:42;11.50;63.80
41628;DHT22;27321;50.816;6.054;2023-05-19T01:37:45;11.50;64.10
41628;DHT22;27321;50.816;6.054;2023-05-19T01:40:47;11.50;64.40
41628;DHT22;27321;50.816;6.054;2023-05-19T01:43:49;11.40;64.40
41628;DHT22;27321;50.816;6.054;2023-05-19T01:46:51;11.40;64.40
41628;DHT22;27321;50.816;6.054;2023-05-19T01:49:52;11.40;64.60
41628;DHT22;27321;50.816;6.054;2023-05-19T01:52:53;11.30;64.60
41628;DHT22;27321;50.816;6.054;2023-05-19T01:55:55;11.30;64.60
41628;DHT22;27321;50.816;6.054;2023-05-19T01:58:58;11.30;64.80
41628;DHT22;27321;50.816;6.054;2023-05-19T02:02:07;11.20;64.70
41628;DHT22;27321;50.816;6.054;2023-05-19T02:05:37;11.20;64.80
41628;DHT22;27321;50.816;6.054;2023-05-19T02:08:50;11.20;64.80
41628;DHT22;27321;50.816;6.054;2023-05-19T02:15:39;11.20;64.80
41628;DHT22;27321;50.816;6.054;2023-05-19T02:18:44;11.10;64.50
41628;DHT22;27321;50.816;6.054;2023-05-19T02:21:45;11.10;64.70
41628;DHT22;27321;50.816;6.054;2023-05-19T02:24:46;11.10;64.80
41628;DHT22;27321;50.816;6.054;2023-05-19T02:27:51;11.10;64.70
41628;DHT22;27321;50.816;6.054;2023-05-19T02:30:52;11.10;64.70
41628;DHT22;27321;50.816;6.054;2023-05-19T02:33:52;11.00;64.40
41628;DHT22;27321;50.816;6.054;2023-05-19T02:36:53;10.90;65.10
41628;DHT22;27321;50.816;6.054;2023-05-19T02:39:56;10.80;65.80
41628;DHT22;27321;50.816;6.054;2023-05-19T02:42:57;10.70;66.00
41628;DHT22;27321;50.816;6.054;2023-05-19T02:45:58;10.70;65.80
41628;DHT22;27321;50.816;6.054;2023-05-19T02:49:00;10.80;65.70
41628;DHT22;27321;50.816;6.054;2023-05-19T02:52:02;10.80;65.40
41628;DHT22;27321;50.816;6.054;2023-05-19T02:55:03;10.80;65.40
41628;DHT22;27321;50.816;6.054;2023-05-19T02:58:04;10.80;65.00
41628;DHT22;27321;50.816;6.054;2023-05-19T03:01:05;10.70;65.40
41628;DHT22;27321;50.816;6.054;2023-05-19T03:04:06;10.70;65.50
41628;DHT22;27321;50.816;6.054;2023-05-19T03:07:07;10.70;65.20
41628;DHT22;27321;50.816;6.054;2023-05-19T03:10:09;10.70;65.30
41628;DHT22;27321;50.816;6.054;2023-05-19T03:13:10;10.80;64.90
41628;DHT22;27321;50.816;6.054;2023-05-19T03:16:12;10.70;64.60
41628;DHT22;27321;50.816;6.054;2023-05-19T03:19:13;10.70;65.10
41628;DHT22;27321;50.816;6.054;2023-05-19T03:22:14;10.70;64.80
41628;DHT22;27321;50.816;6.054;2023-05-19T03:25:15;10.60;65.20
41628;DHT22;27321;50.816;6.054;2023-05-19T03:28:16;10.60;65.00
41628;DHT22;27321;50.816;6.054;2023-05-19T03:31:17;10.60;65.30
41628;DHT22;27321;50.816;6.054;2023-05-19T03:34:18;10.60;65.40
41628;DHT22;27321;50.816;6.054;2023-05-19T03:37:20;10.60;65.10
41628;DHT22;27321;50.816;6.054;2023-05-19T03:40:20;10.60;65.00
41628;DHT22;27321;50.816;6.054;2023-05-19T03:43:23;10.60;65.00
41628;DHT22;27321;50.816;6.054;2023-05-19T03:46:30;10.60;65.00
41628;DHT22;27321;50.816;6.054;2023-05-19T03:49:51;10.50;65.10
41628;DHT22;27321;50.816;6.054;2023-05-19T03:53:12;10.60;65.00
41628;DHT22;27321;50.816;6.054;2023-05-19T03:56:15;10.50;65.40
41628;DHT22;27321;50.816;6.054;2023-05-19T03:59:17;10.50;65.50
41628;DHT22;27321;50.816;6.054;2023-05-19T04:02:18;10.50;65.80
41628;DHT22;27321;50.816;6.054;2023-05-19T04:05:21;10.50;65.70
41628;DHT22;27321;50.816;6.054;2023-05-19T04:08:22;10.50;65.70
41628;DHT22;27321;50.816;6.054;2023-05-19T04:11:23;10.50;66.00
41628;DHT22;27321;50.816;6.054;2023-05-19T04:14:25;10.50;66.00
41628;DHT22;27321;50.816;6.054;2023-05-19T04:17:26;10.50;65.90
41628;DHT22;27321;50.816;6.054;2023-05-19T04:20:28;10.60;65.90
41628;DHT22;27321;50.816;6.054;2023-05-19T04:23:29;10.60;65.70
41628;DHT22;27321;50.816;6.054;2023-05-19T04:26:31;10.60;65.70
41628;DHT22;27321;50.816;6.054;2023-05-19T04:29:33;10.60;65.50
41628;DHT22;27321;50.816;6.054;2023-05-19T04:32:35;10.60;65.80
41628;DHT22;27321;50.816;6.054;2023-05-19T04:35:37;10.60;66.00
41628;DHT22;27321;50.816;6.054;2023-05-19T04:38:40;10.50;66.40
41628;DHT22;27321;50.816;6.054;2023-05-19T04:41:42;10.60;66.60
41628;DHT22;27321;50.816;6.054;2023-05-19T04:44:45;10.70;66.50
41628;DHT22;27321;50.816;6.054;2023-05-19T04:47:48;10.70;66.80
41628;DHT22;27321;50.816;6.054;2023-05-19T04:50:49;10.80;66.70
41628;DHT22;27321;50.816;6.054;2023-05-19T04:53:51;10.80;66.80
41628;DHT22;27321;50.816;6.054;2023-05-19T04:56:54;10.90;66.70
41628;DHT22;27321;50.816;6.054;2023-05-19T04:59:55;10.90;67.10
41628;DHT22;27321;50.816;6.054;2023-05-19T05:03:00;10.90;67.00
41628;DHT22;27321;50.816;6.054;2023-05-19T05:06:05;10.90;67.60
41628;DHT22;27321;50.816;6.054;2023-05-19T05:09:07;11.00;67.60
41628;DHT22;27321;50.816;6.054;2023-05-19T05:12:08;11.10;67.70
41628;DHT22;27321;50.816;6.054;2023-05-19T05:15:12;11.20;68.00
41628;DHT22;27321;50.816;6.054;2023-05-19T05:18:14;11.20;68.10
41628;DHT22;27321;50.816;6.054;2023-05-19T05:21:15;11.30;68.10
41628;DHT22;27321;50.816;6.054;2023-05-19T05:24:16;11.30;68.00
41628;DHT22;27321;50.816;6.054;2023-05-19T05:27:22;11.40;68.10
41628;DHT22;27321;50.816;6.054;2023-05-19T05:30:24;11.40;68.00
41628;DHT22;27321;50.816;6.054;2023-05-19T05:33:25;11.40;68.20
41628;DHT22;27321;50.816;6.054;2023-05-19T05:36:26;11.30;68.70
41628;DHT22;27321;50.816;6.054;2023-05-19T05:39:28;11.30;69.10
41628;DHT22;27321;50.816;6.054;2023-05-19T05:42:31;11.50;69.00
41628;DHT22;27321;50.816;6.054;2023-05-19T05:45:32;11.50;68.60
41628;DHT22;27321;50.816;6.054;2023-05-19T05:48:35;11.60;68.70
41628;DHT22;27321;50.816;6.054;2023-05-19T05:51:37;11.60;68.60
41628;DHT22;27321;50.816;6.054;2023-05-19T05:54:39;11.80;67.20
41628;DHT22;27321;50.816;6.054;2023-05-19T05:57:41;11.70;66.20
41628;DHT22;27321;50.816;6.054;2023-05-19T06:00:43;11.80;66.90
41628;DHT22;27321;50.816;6.054;2023-05-19T06:03:44;11.90;66.20
41628;DHT22;27321;50.816;6.054;2023-05-19T06:06:49;11.80;65.80
41628;DHT22;27321;50.816;6.054;2023-05-19T06:09:56;11.90;66.60
41628;DHT22;27321;50.816;6.054;2023-05-19T06:12:57;12.00;66.30
41628;DHT22;27321;50.816;6.054;2023-05-19T06:16:00;12.10;66.40
41628;DHT22;27321;50.816;6.054;2023-05-19T06:19:06;12.10;65.80
41628;DHT22;27321;50.816;6.054;2023-05-19T06:22:10;12.20;66.30
41628;DHT22;27321;50.816;6.054;2023-05-19T06:25:14;12.30;66.70
41628;DHT22;27321;50.816;6.054;2023-05-19T06:28:16;12.30;67.00
41628;DHT22;27321;50.816;6.054;2023-05-19T06:31:18;12.40;66.60
41628;DHT22;27321;50.816;6.054;2023-05-19T06:34:24;12.50;66.90
41628;DHT22;27321;50.816;6.054;2023-05-19T06:37:27;12.50;65.30
41628;DHT22;27321;50.816;6.054;2023-05-19T06:40:29;12.50;63.60
41628;DHT22;27321;50.816;6.054;2023-05-19T06:43:30;12.60;64.30
41628;DHT22;27321;50.816;6.054;2023-05-19T06:46:36;12.60;63.90
41628;DHT22;27321;50.816;6.054;2023-05-19T06:49:38;12.70;63.30
41628;DHT22;27321;50.816;6.054;2023-05-19T06:52:39;12.80;63.20
41628;DHT22;27321;50.816;6.054;2023-05-19T06:55:40;12.70;62.90
41628;DHT22;27321;50.816;6.054;2023-05-19T06:58:41;12.80;62.90
41628;DHT22;27321;50.816;6.054;2023-05-19T07:01:44;12.70;62.10
41628;DHT22;27321;50.816;6.054;2023-05-19T07:04:46;12.70;62.20
41628;DHT22;27321;50.816;6.054;2023-05-19T07:07:50;12.80;62.20
41628;DHT22;27321;50.816;6.054;2023-05-19T07:10:56;12.80;62.20
41628;DHT22;27321;50.816;6.054;2023-05-19T07:13:57;12.80;61.60
41628;DHT22;27321;50.816;6.054;2023-05-19T07:17:01;12.90;61.70
41628;DHT22;27321;50.816;6.054;2023-05-19T07:20:03;13.00;62.00
41628;DHT22;27321;50.816;6.054;2023-05-19T07:23:09;13.00;61.90
41628;DHT22;27321;50.816;6.054;2023-05-19T07:26:10;13.10;62.10
41628;DHT22;27321;50.816;6.054;2023-05-19T07:29:11;13.20;62.10
41628;DHT22;27321;50.816;6.054;2023-05-19T07:32:12;13.30;61.90
41628;DHT22;27321;50.816;6.054;2023-05-19T07:35:13;13.30;61.40
41628;DHT22;27321;50.816;6.054;2023-05-19T07:38:14;13.40;62.20
41628;DHT22;27321;50.816;6.054;2023-05-19T07:41:15;13.50;60.40
41628;DHT22;27321;50.816;6.054;2023-05-19T07:44:15;13.40;58.60
41628;DHT22;27321;50.816;6.054;2023-05-19T07:47:16;13.40;59.50
41628;DHT22;27321;50.816;6.054;2023-05-19T07:50:17;13.40;58.70
41628;DHT22;27321;50.816;6.054;2023-05-19T07:53:18;13.50;58.60
41628;DHT22;27321;50.816;6.054;2023-05-19T07:56:19;13.50;58.20
41628;DHT22;27321;50.816;6.054;2023-05-19T07:59:21;13.50;58.50
41628;DHT22;27321;50.816;6.054;2023-05-19T08:02:22;13.50;58.90
41628;DHT22;27321;50.816;6.054;2023-05-19T08:05:23;13.60;59.60
41628;DHT22;27321;50.816;6.054;2023-05-19T08:08:25;13.70;59.90
41628;DHT22;27321;50.816;6.054;2023-05-19T08:11:26;13.80;59.70
41628;DHT22;27321;50.816;6.054;2023-05-19T08:14:27;13.80;59.80
41628;DHT22;27321;50.816;6.054;2023-05-19T08:17:29;13.90;59.80
41628;DHT22;27321;50.816;6.054;2023-05-19T08:20:30;14.00;59.10
41628;DHT22;27321;50.816;6.054;2023-05-19T08:23:31;14.10;58.20
41628;DHT22;27321;50.816;6.054;2023-05-19T08:26:33;14.10;58.50
41628;DHT22;27321;50.816;6.054;2023-05-19T08:29:34;14.10;59.30
41628;DHT22;27321;50.816;6.054;2023-05-19T08:32:36;14.10;59.60
41628;DHT22;27321;50.816;6.054;2023-05-19T08:35:37;14.10;57.30
41628;DHT22;27321;50.816;6.054;2023-05-19T08:38:37;14.20;57.90
41628;DHT22;27321;50.816;6.054;2023-05-19T08:41:38;14.20;57.80
41628;DHT22;27321;50.816;6.054;2023-05-19T08:44:39;14.30;57.70
41628;DHT22;27321;50.816;6.054;2023-05-19T08:47:41;14.30;58.80
41628;DHT22;27321;50.816;6.054;2023-05-19T08:50:56;14.40;59.00
41628;DHT22;27321;50.816;6.054;2023-05-19T08:54:07;14.50;58.30
41628;DHT22;27321;50.816;6.054;2023-05-19T08:57:15;14.50;58.00
41628;DHT22;27321;50.816;6.054;2023-05-19T09:00:16;14.60;57.10
41628;DHT22;27321;50.816;6.054;2023-05-19T09:03:17;14.60;56.90
41628;DHT22;27321;50.816;6.054;2023-05-19T09:06:18;14.70;57.30
41628;DHT22;27321;50.816;6.054;2023-05-19T09:09:19;14.80;55.80
41628;DHT22;27321;50.816;6.054;2023-05-19T09:12:20;14.90;56.90
41628;DHT22;27321;50.816;6.054;2023-05-19T09:15:23;15.00;57.80
41628;DHT22;27321;50.816;6.054;2023-05-19T09:18:26;15.00;57.80
41628;DHT22;27321;50.816;6.054;2023-05-19T09:21:27;15.00;56.70
41628;DHT22;27321;50.816;6.054;2023-05-19T09:24:32;15.10;54.70
41628;DHT22;27321;50.816;6.054;2023-05-19T09:27:33;15.10;54.30
41628;DHT22;27321;50.816;6.054;2023-05-19T09:30:34;15.10;55.80
41628;DHT22;27321;50.816;6.054;2023-05-19T09:33:36;15.20;57.40
41628;DHT22;27321;50.816;6.054;2023-05-19T09:36:38;15.30;54.60
41628;DHT22;27321;50.816;6.054;2023-05-19T09:39:40;15.30;54.20
41628;DHT22;27321;50.816;6.054;2023-05-19T09:42:48;15.30;54.10
41628;DHT22;27321;50.816;6.054;2023-05-19T09:46:08;15.30;52.90
41628;DHT22;27321;50.816;6.054;2023-05-19T09:49:12;15.50;54.30
41628;DHT22;27321;50.816;6.054;2023-05-19T09:52:19;15.60;55.50
41628;DHT22;27321;50.816;6.054;2023-05-19T09:55:21;15.70;55.30
41628;DHT22;27321;50.816;6.054;2023-05-19T09:58:25;15.70;54.70
41628;DHT22;27321;50.816;6.054;2023-05-19T10:01:26;15.70;54.50
41628;DHT22;27321;50.816;6.054;2023-05-19T10:04:27;15.80;53.70
41628;DHT22;27321;50.816;6.054;2023-05-19T10:07:29;15.80;52.80
41628;DHT22;27321;50.816;6.054;2023-05-19T10:10:30;15.90;53.70
41628;DHT22;27321;50.816;6.054;2023-05-19T10:13:31;16.00;52.80
41628;DHT22;27321;50.816;6.054;2023-05-19T10:16:35;15.90;52.80
41628;DHT22;27321;50.816;6.054;2023-05-19T10:19:36;15.90;53.40
41628;DHT22;27321;50.816;6.054;2023-05-19T10:22:38;16.00;53.40
41628;DHT22;27321;50.816;6.054;2023-05-19T10:25:39;16.00;52.90
41628;DHT22;27321;50.816;6.054;2023-05-19T10:28:41;16.10;53.00
41628;DHT22;27321;50.816;6.054;2023-05-19T10:31:43;16.10;51.10
41628;DHT22;27321;50.816;6.054;2023-05-19T10:41:18;16.30;51.30
41628;DHT22;27321;50.816;6.054;2023-05-19T10:48:18;16.30;53.20
41628;DHT22;27321;50.816;6.054;2023-05-19T10:51:27;16.50;53.30
41628;DHT22;27321;50.816;6.054;2023-05-19T10:54:43;16.50;52.50
41628;DHT22;27321;50.816;6.054;2023-05-19T10:57:53;16.60;51.90
41628;DHT22;27321;50.816;6.054;2023-05-19T11:01:00;16.70;52.10
41628;DHT22;27321;50.816;6.054;2023-05-19T11:04:05;16.80;50.90
41628;DHT22;27321;50.816;6.054;2023-05-19T11:07:08;16.80;50.30
41628;DHT22;27321;50.816;6.054;2023-05-19T11:10:10;16.90;51.00
41628;DHT22;27321;50.816;6.054;2023-05-19T11:13:17;17.00;50.10
41628;DHT22;27321;50.816;6.054;2023-05-19T11:16:26;17.00;51.00
41628;DHT22;27321;50.816;6.054;2023-05-19T11:19:29;17.00;49.80
41628;DHT22;27321;50.816;6.054;2023-05-19T11:22:34;17.10;48.50
41628;DHT22;27321;50.816;6.054;2023-05-19T11:25:43;17.20;48.80
41628;DHT22;27321;50.816;6.054;2023-05-19T11:28:47;17.30;49.00
41628;DHT22;27321;50.816;6.054;2023-05-19T11:31:48;17.30;49.10
41628;DHT22;27321;50.816;6.054;2023-05-19T11:34:51;17.30;48.80
41628;DHT22;27321;50.816;6.054;2023-05-19T11:37:55;17.30;47.00
41628;DHT22;27321;50.816;6.054;2023-05-19T11:40:57;17.40;48.20
41628;DHT22;27321;50.816;6.054;2023-05-19T11:43:57;17.40;48.40
41628;DHT22;27321;50.816;6.054;2023-05-19T11:46:58;17.50;48.40
41628;DHT22;27321;50.816;6.054;2023-05-19T11:50:00;17.60;49.00
41628;DHT22;27321;50.816;6.054;2023-05-19T11:53:01;17.60;48.30
41628;DHT22;27321;50.816;6.054;2023-05-19T11:56:02;17.70;47.00
41628;DHT22;27321;50.816;6.054;2023-05-19T11:59:03;17.90;47.10
41628;DHT22;27321;50.816;6.054;2023-05-19T12:02:17;18.10;46.60
41628;DHT22;27321;50.816;6.054;2023-05-19T12:05:22;18.10;44.10
41628;DHT22;27321;50.816;6.054;2023-05-19T12:08:24;18.20;43.70
41628;DHT22;27321;50.816;6.054;2023-05-19T12:11:26;18.30;45.40
41628;DHT22;27321;50.816;6.054;2023-05-19T12:14:28;18.50;43.70
41628;DHT22;27321;50.816;6.054;2023-05-19T12:17:31;18.50;45.10
41628;DHT22;27321;50.816;6.054;2023-05-19T12:20:32;18.60;43.70
41628;DHT22;27321;50.816;6.054;2023-05-19T12:23:34;18.70;43.90
41628;DHT22;27321;50.816;6.054;2023-05-19T12:26:36;18.70;42.90
41628;DHT22;27321;50.816;6.054;2023-05-19T12:29:37;18.60;42.60
41628;DHT22;27321;50.816;6.054;2023-05-19T12:32:39;18.60;43.10
41628;DHT22;27321;50.816;6.054;2023-05-19T12:35:40;18.70;43.50
41628;DHT22;27321;50.816;6.054;2023-05-19T12:38:42;18.70;43.10
41628;DHT22;27321;50.816;6.054;2023-05-19T12:41:43;18.50;43.10
41628;DHT22;27321;50.816;6.054;2023-05-19T12:44:48;18.50;42.60
41628;DHT22;27321;50.816;6.054;2023-05-19T12:47:51;18.50;43.90
41628;DHT22;27321;50.816;6.054;2023-05-19T12:50:52;18.50;42.40
41628;DHT22;27321;50.816;6.054;2023-05-19T12:53:54;18.50;41.80
41628;DHT22;27321;50.816;6.054;2023-05-19T12:56:56;18.50;43.10
41628;DHT22;27321;50.816;6.054;2023-05-19T13:00:00;18.50;42.50
41628;DHT22;27321;50.816;6.054;2023-05-19T13:03:05;18.50;44.30
41628;DHT22;27321;50.816;6.054;2023-05-19T13:06:07;18.60;43.20
41628;DHT22;27321;50.816;6.054;2023-05-19T13:09:09;18.60;42.70
41628;DHT22;27321;50.816;6.054;2023-05-19T13:12:10;18.70;42.20
41628;DHT22;27321;50.816;6.054;2023-05-19T13:15:11;18.80;42.20
41628;DHT22;27321;50.816;6.054;2023-05-19T13:18:13;18.90;41.70
41628;DHT22;27321;50.816;6.054;2023-05-19T13:21:14;18.90;42.70
41628;DHT22;27321;50.816;6.054;2023-05-19T13:24:15;19.00;42.80
41628;DHT22;27321;50.816;6.054;2023-05-19T13:27:16;18.90;42.50
41628;DHT22;27321;50.816;6.054;2023-05-19T13:30:18;18.80;43.10
41628;DHT22;27321;50.816;6.054;2023-05-19T13:33:19;18.80;42.90
41628;DHT22;27321;50.816;6.054;2023-05-19T13:36:19;18.80;43.30
41628;DHT22;27321;50.816;6.054;2023-05-19T13:39:20;18.90;41.50
41628;DHT22;27321;50.816;6.054;2023-05-19T13:42:21;19.00;42.80
41628;DHT22;27321;50.816;6.054;2023-05-19T13:45:22;19.10;42.80
41628;DHT22;27321;50.816;6.054;2023-05-19T13:48:23;19.10;41.60
41628;DHT22;27321;50.816;6.054;2023-05-19T13:51:24;19.10;41.20
41628;DHT22;27321;50.816;6.054;2023-05-19T13:54:25;19.00;43.30
41628;DHT22;27321;50.816;6.054;2023-05-19T13:57:26;19.10;43.00
41628;DHT22;27321;50.816;6.054;2023-05-19T14:00:28;19.00;43.10
41628;DHT22;27321;50.816;6.054;2023-05-19T14:03:30;19.10;41.90
41628;DHT22;27321;50.816;6.054;2023-05-19T14:06:31;19.10;43.10
41628;DHT22;27321;50.816;6.054;2023-05-19T14:09:32;19.10;43.10
41628;DHT22;27321;50.816;6.054;2023-05-19T14:12:34;19.20;43.30
41628;DHT22;27321;50.816;6.054;2023-05-19T14:15:35;19.30;41.50
41628;DHT22;27321;50.816;6.054;2023-05-19T14:18:37;19.40;40.50
41628;DHT22;27321;50.816;6.054;2023-05-19T14:21:38;19.50;40.50
41628;DHT22;27321;50.816;6.054;2023-05-19T14:24:38;19.50;40.50
41628;DHT22;27321;50.816;6.054;2023-05-19T14:27:40;19.50;42.00
41628;DHT22;27321;50.816;6.054;2023-05-19T14:30:41;19.60;41.90
41628;DHT22;27321;50.816;6.054;2023-05-19T14:33:42;19.50;42.50
41628;DHT22;27321;50.816;6.054;2023-05-19T14:36:43;19.40;42.30
41628;DHT22;27321;50.816;6.054;2023-05-19T14:39:44;19.30;42.50
41628;DHT22;27321;50.816;6.054;2023-05-19T14:42:45;19.30;42.10
41628;DHT22;27321;50.816;6.054;2023-05-19T14:45:46;19.30;43.10
41628;DHT22;27321;50.816;6.054;2023-05-19T14:48:47;19.40;41.90
41628;DHT22;27321;50.816;6.054;2023-05-19T14:51:47;19.50;41.40
41628;DHT22;27321;50.816;6.054;2023-05-19T14:54:48;19.60;42.20
41628;DHT22;27321;50.816;6.054;2023-05-19T14:57:49;19.50;41.00
41628;DHT22;27321;50.816;6.054;2023-05-19T15:00:50;19.50;41.50
41628;DHT22;27321;50.816;6.054;2023-05-19T15:03:51;19.50;41.40
41628;DHT22;27321;50.816;6.054;2023-05-19T15:06:52;19.60;41.60
41628;DHT22;27321;50.816;6.054;2023-05-19T15:09:53;19.50;42.10
41628;DHT22;27321;50.816;6.054;2023-05-19T15:12:54;19.50;41.70
41628;DHT22;27321;50.816;6.054;2023-05-19T15:15:57;19.50;41.50
41628;DHT22;27321;50.816;6.054;2023-05-19T15:18:57;19.60;42.30
41628;DHT22;27321;50.816;6.054;2023-05-19T15:21:58;19.70;41.80
41628;DHT22;27321;50.816;6.054;2023-05-19T15:24:59;19.80;41.90
41628;DHT22;27321;50.816;6.054;2023-05-19T15:28:00;19.80;41.30
41628;DHT22;27321;50.816;6.054;2023-05-19T15:31:01;19.70;41.20
41628;DHT22;27321;50.816;6.054;2023-05-19T15:34:02;19.70;40.50
41628;DHT22;27321;50.816;6.054;2023-05-19T15:37:03;19.70;41.70
41628;DHT22;27321;50.816;6.054;2023-05-19T15:40:04;19.80;41.40
41628;DHT22;27321;50.816;6.054;2023-05-19T15:43:05;19.80;40.90
41628;DHT22;27321;50.816;6.054;2023-05-19T15:46:06;19.80;41.40
41628;DHT22;27321;50.816;6.054;2023-05-19T15:49:07;19.90;40.90
41628;DHT22;27321;50.816;6.054;2023-05-19T15:52:08;19.90;40.30
41628;DHT22;27321;50.816;6.054;2023-05-19T15:55:09;19.80;39.80
41628;DHT22;27321;50.816;6.054;2023-05-19T15:58:11;19.80;40.60
41628;DHT22;27321;50.816;6.054;2023-05-19T16:01:13;19.90;40.50
41628;DHT22;27321;50.816;6.054;2023-05-19T16:04:14;19.90;41.10
41628;DHT22;27321;50.816;6.054;2023-05-19T16:07:16;20.00;40.20
41628;DHT22;27321;50.816;6.054;2023-05-19T16:10:17;20.00;40.50
41628;DHT22;27321;50.816;6.054;2023-05-19T16:13:18;20.10;39.80
41628;DHT22;27321;50.816;6.054;2023-05-19T16:16:20;20.30;40.20
41628;DHT22;27321;50.816;6.054;2023-05-19T16:19:21;20.30;40.10
41628;DHT22;27321;50.816;6.054;2023-05-19T16:22:25;20.30;40.80
41628;DHT22;27321;50.816;6.054;2023-05-19T16:25:26;20.30;39.20
41628;DHT22;27321;50.816;6.054;2023-05-19T16:28:27;20.30;39.70
41628;DHT22;27321;50.816;6.054;2023-05-19T16:31:28;20.30;39.30
41628;DHT22;27321;50.816;6.054;2023-05-19T16:34:30;20.30;39.30
41628;DHT22;27321;50.816;6.054;2023-05-19T16:37:31;20.40;39.90
41628;DHT22;27321;50.816;6.054;2023-05-19T16:40:31;20.40;40.00
41628;DHT22;27321;50.816;6.054;2023-05-19T16:43:32;20.50;40.00
41628;DHT22;27321;50.816;6.054;2023-05-19T16:46:35;20.50;40.20
41628;DHT22;27321;50.816;6.054;2023-05-19T16:49:36;20.40;39.90
41628;DHT22;27321;50.816;6.054;2023-05-19T16:52:37;20.50;40.00
41628;DHT22;27321;50.816;6.054;2023-05-19T16:55:38;20.40;39.70
41628;DHT22;27321;50.816;6.054;2023-05-19T16:58:39;20.30;40.00
41628;DHT22;27321;50.816;6.054;2023-05-19T17:01:40;20.20;39.90
41628;DHT22;27321;50.816;6.054;2023-05-19T17:04:41;20.20;40.20
41628;DHT22;27321;50.816;6.054;2023-05-19T17:07:42;20.20;40.00
41628;DHT22;27321;50.816;6.054;2023-05-19T17:10:43;20.20;40.30
41628;DHT22;27321;50.816;6.054;2023-05-19T17:13:44;20.30;40.10
41628;DHT22;27321;50.816;6.054;2023-05-19T17:16:48;20.30;40.30
41628;DHT22;27321;50.816;6.054;2023-05-19T17:19:49;20.10;39.70
41628;DHT22;27321;50.816;6.054;2023-05-19T17:22:50;20.00;40.50
41628;DHT22;27321;50.816;6.054;2023-05-19T17:25:52;20.00;40.20
41628;DHT22;27321;50.816;6.054;2023-05-19T17:28:54;19.90;40.30
41628;DHT22;27321;50.816;6.054;2023-05-19T17:31:55;19.90;41.00
41628;DHT22;27321;50.816;6.054;2023-05-19T17:34:56;19.90;41.20
41628;DHT22;27321;50.816;6.054;2023-05-19T17:37:57;19.80;41.40
41628;DHT22;27321;50.816;6.054;2023-05-19T17:40:58;19.80;40.90
41628;DHT22;27321;50.816;6.054;2023-05-19T17:44:00;19.80;40.80
41628;DHT22;27321;50.816;6.054;2023-05-19T17:47:02;19.80;40.40
41628;DHT22;27321;50.816;6.054;2023-05-19T17:50:03;19.70;40.70
41628;DHT22;27321;50.816;6.054;2023-05-19T17:53:04;19.60;40.50
41628;DHT22;27321;50.816;6.054;2023-05-19T17:56:05;19.60;40.10
41628;DHT22;27321;50.816;6.054;2023-05-19T17:59:09;19.50;40.50
41628;DHT22;27321;50.816;6.054;2023-05-19T18:02:10;19.30;39.80
41628;DHT22;27321;50.816;6.054;2023-05-19T18:05:11;19.30;39.80
41628;DHT22;27321;50.816;6.054;2023-05-19T18:08:13;19.20;40.00
41628;DHT22;27321;50.816;6.054;2023-05-19T18:11:16;19.10;39.80
41628;DHT22;27321;50.816;6.054;2023-05-19T18:14:17;19.10;39.70
41628;DHT22;27321;50.816;6.054;2023-05-19T18:17:18;19.10;40.30
41628;DHT22;27321;50.816;6.054;2023-05-19T18:20:19;19.00;40.40
41628;DHT22;27321;50.816;6.054;2023-05-19T18:23:20;19.00;40.70
41628;DHT22;27321;50.816;6.054;2023-05-19T18:26:21;19.00;40.70
41628;DHT22;27321;50.816;6.054;2023-05-19T18:29:21;18.90;40.60
41628;DHT22;27321;50.816;6.054;2023-05-19T18:32:22;18.90;40.80
41628;DHT22;27321;50.816;6.054;2023-05-19T18:35:23;18.80;40.60
41628;DHT22;27321;50.816;6.054;2023-05-19T18:38:24;18.80;40.60
41628;DHT22;27321;50.816;6.054;2023-05-19T18:41:25;18.80;40.90
41628;DHT22;27321;50.816;6.054;2023-05-19T18:44:26;18.80;41.10
41628;DHT22;27321;50.816;6.054;2023-05-19T18:47:28;18.70;41.00
41628;DHT22;27321;50.816;6.054;2023-05-19T18:50:29;18.60;41.40
41628;DHT22;27321;50.816;6.054;2023-05-19T18:53:33;18.60;40.90
41628;DHT22;27321;50.816;6.054;2023-05-19T18:56:35;18.50;41.50
41628;DHT22;27321;50.816;6.054;2023-05-19T18:59:36;18.40;41.90
41628;DHT22;27321;50.816;6.054;2023-05-19T19:02:37;18.40;42.20
41628;DHT22;27321;50.816;6.054;2023-05-19T19:05:38;18.30;42.00
41628;DHT22;27321;50.816;6.054;2023-05-19T19:08:39;18.20;42.40
41628;DHT22;27321;50.816;6.054;2023-05-19T19:11:40;18.20;42.70
41628;DHT22;27321;50.816;6.054;2023-05-19T19:14:41;18.10;42.60
41628;DHT22;27321;50.816;6.054;2023-05-19T19:17:42;18.10;43.00
41628;DHT22;27321;50.816;6.054;2023-05-19T19:20:44;18.10;43.30
41628;DHT22;27321;50.816;6.054;2023-05-19T19:23:45;18.10;43.30
41628;DHT22;27321;50.816;6.054;2023-05-19T19:26:46;18.00;43.50
41628;DHT22;27321;50.816;6.054;2023-05-19T19:29:47;18.00;43.60
41628;DHT22;27321;50.816;6.054;2023-05-19T19:32:48;17.90;43.90